80NC weather

Public forecast

Using degrees Fahrenheit for public forecast. Weather courtesy of forecast.io.

Closest aviation weather report (METAR) to May Airport

Closest report is Burlington Alamance Regional Airport, 10.8 nm (20.1 km) ENE. Retrieved 2020/08/09 13:54 UTC (25 minutes ago):

KBUY 091354Z AUTO 00000KT 10SM FEW014 28/23 A3017 RMK AO2 SLP207 T02830228

Closest aviation forecast (TAF) to May Airport

Closest forecast is Piedmont Triad International Airport, 13.4 nm (24.9 km) WNW. Retrieved 2020/08/09 12:22 UTC (2 hours ago):

TAF KGSO 091120Z 0912/1012 VRB05KT P6SM SCT250 FM091800 22003KT P6SM SCT040